sensor_id;sensor_type;location;lat;lon;timestamp;noise_LAeq;noise_LA_min;noise_LA_max;noise_LA01;noise_LA95
74496;Laerm;62979;55.720;37.606;2023-04-03T00:00:49;47.23;38.63;61.22;;
74496;Laerm;62979;55.720;37.606;2023-04-03T00:03:16;45.27;39.25;56.82;;
74496;Laerm;62979;55.720;37.606;2023-04-03T00:05:46;49.76;39.16;65.73;;
74496;Laerm;62979;55.720;37.606;2023-04-03T00:08:13;44.18;38.43;53.12;;
74496;Laerm;62979;55.720;37.606;2023-04-03T00:10:40;43.14;39.09;57.72;;
74496;Laerm;62979;55.720;37.606;2023-04-03T00:13:09;43.85;39.60;48.70;;
74496;Laerm;62979;55.720;37.606;2023-04-03T00:15:37;42.98;38.77;47.53;;
74496;Laerm;62979;55.720;37.606;2023-04-03T00:18:05;44.16;38.49;49.90;;
74496;Laerm;62979;55.720;37.606;2023-04-03T00:20:33;44.04;38.92;50.56;;
74496;Laerm;62979;55.720;37.606;2023-04-03T00:23:01;42.33;38.56;57.37;;
74496;Laerm;62979;55.720;37.606;2023-04-03T00:25:27;44.14;38.05;53.83;;
74496;Laerm;62979;55.720;37.606;2023-04-03T00:27:55;45.07;39.24;57.93;;
74496;Laerm;62979;55.720;37.606;2023-04-03T00:30:23;44.67;38.78;51.63;;
74496;Laerm;62979;55.720;37.606;2023-04-03T00:32:51;42.04;38.39;45.47;;
74496;Laerm;62979;55.720;37.606;2023-04-03T00:35:20;42.46;37.88;47.61;;
74496;Laerm;62979;55.720;37.606;2023-04-03T00:37:51;47.01;39.14;60.72;;
74496;Laerm;62979;55.720;37.606;2023-04-03T00:40:21;42.78;38.71;60.31;;
74496;Laerm;62979;55.720;37.606;2023-04-03T00:42:52;43.80;39.51;49.09;;
74496;Laerm;62979;55.720;37.606;2023-04-03T00:45:34;44.31;38.04;54.10;;
74496;Laerm;62979;55.720;37.606;2023-04-03T00:48:06;43.58;38.19;53.76;;
74496;Laerm;62979;55.720;37.606;2023-04-03T00:50:37;42.42;38.09;49.74;;
74496;Laerm;62979;55.720;37.606;2023-04-03T00:53:06;41.72;37.21;46.86;;
74496;Laerm;62979;55.720;37.606;2023-04-03T00:55:38;41.93;37.98;46.23;;
74496;Laerm;62979;55.720;37.606;2023-04-03T00:58:06;42.51;38.16;46.18;;
74496;Laerm;62979;55.720;37.606;2023-04-03T01:00:37;44.17;39.64;51.37;;
74496;Laerm;62979;55.720;37.606;2023-04-03T01:03:06;43.26;39.11;47.09;;
74496;Laerm;62979;55.720;37.606;2023-04-03T01:05:33;48.06;40.32;61.54;;
74496;Laerm;62979;55.720;37.606;2023-04-03T01:08:00;44.42;39.85;57.28;;
74496;Laerm;62979;55.720;37.606;2023-04-03T01:10:27;45.39;41.15;49.75;;
74496;Laerm;62979;55.720;37.606;2023-04-03T01:12:55;44.69;40.67;49.81;;
74496;Laerm;62979;55.720;37.606;2023-04-03T01:15:25;43.48;39.90;47.73;;
74496;Laerm;62979;55.720;37.606;2023-04-03T01:17:57;43.73;39.72;48.53;;
74496;Laerm;62979;55.720;37.606;2023-04-03T01:23:52;44.88;39.46;56.41;;
74496;Laerm;62979;55.720;37.606;2023-04-03T01:26:24;43.72;39.09;56.58;;
74496;Laerm;62979;55.720;37.606;2023-04-03T01:28:53;44.30;40.12;48.28;;
74496;Laerm;62979;55.720;37.606;2023-04-03T01:31:25;62.12;45.02;74.08;;
74496;Laerm;62979;55.720;37.606;2023-04-03T01:33:55;45.14;40.64;54.15;;
74496;Laerm;62979;55.720;37.606;2023-04-03T01:36:25;44.67;40.42;49.67;;
74496;Laerm;62979;55.720;37.606;2023-04-03T01:38:53;43.72;39.39;48.41;;
74496;Laerm;62979;55.720;37.606;2023-04-03T01:41:21;44.17;39.32;52.22;;
74496;Laerm;62979;55.720;37.606;2023-04-03T01:43:49;43.77;39.69;51.95;;
74496;Laerm;62979;55.720;37.606;2023-04-03T01:46:16;45.89;40.39;53.46;;
74496;Laerm;62979;55.720;37.606;2023-04-03T01:48:43;44.91;40.44;52.71;;
74496;Laerm;62979;55.720;37.606;2023-04-03T01:51:12;44.81;40.31;58.04;;
74496;Laerm;62979;55.720;37.606;2023-04-03T01:53:39;44.87;39.84;55.56;;
74496;Laerm;62979;55.720;37.606;2023-04-03T01:56:06;45.00;39.92;56.63;;
74496;Laerm;62979;55.720;37.606;2023-04-03T01:58:34;46.80;40.84;58.57;;
74496;Laerm;62979;55.720;37.606;2023-04-03T02:01:01;61.64;41.54;71.51;;
74496;Laerm;62979;55.720;37.606;2023-04-03T02:03:28;55.78;40.04;67.75;;
74496;Laerm;62979;55.720;37.606;2023-04-03T02:05:55;47.47;40.43;60.81;;
74496;Laerm;62979;55.720;37.606;2023-04-03T02:08:23;66.79;44.39;76.76;;
74496;Laerm;62979;55.720;37.606;2023-04-03T02:10:50;45.15;39.49;52.07;;
74496;Laerm;62979;55.720;37.606;2023-04-03T02:13:18;50.01;40.71;60.93;;
74496;Laerm;62979;55.720;37.606;2023-04-03T02:15:46;47.68;39.62;61.98;;
74496;Laerm;62979;55.720;37.606;2023-04-03T02:18:13;48.23;40.45;56.97;;
74496;Laerm;62979;55.720;37.606;2023-04-03T02:20:40;57.89;45.55;65.51;;
74496;Laerm;62979;55.720;37.606;2023-04-03T02:23:07;47.16;40.14;58.01;;
74496;Laerm;62979;55.720;37.606;2023-04-03T02:25:36;49.54;40.18;63.20;;
74496;Laerm;62979;55.720;37.606;2023-04-03T02:28:03;47.71;39.89;62.61;;
74496;Laerm;62979;55.720;37.606;2023-04-03T02:30:30;50.52;40.12;64.31;;
74496;Laerm;62979;55.720;37.606;2023-04-03T02:32:57;43.67;39.05;52.51;;
74496;Laerm;62979;55.720;37.606;2023-04-03T02:35:24;47.67;39.11;60.32;;
74496;Laerm;62979;55.720;37.606;2023-04-03T02:37:51;51.06;39.34;63.70;;
74496;Laerm;62979;55.720;37.606;2023-04-03T02:40:18;46.21;40.06;56.39;;
74496;Laerm;62979;55.720;37.606;2023-04-03T02:42:47;51.75;41.32;61.79;;
74496;Laerm;62979;55.720;37.606;2023-04-03T02:45:14;52.32;41.61;66.17;;
74496;Laerm;62979;55.720;37.606;2023-04-03T02:47:41;45.19;39.89;53.97;;
74496;Laerm;62979;55.720;37.606;2023-04-03T02:50:08;45.06;40.17;53.16;;
74496;Laerm;62979;55.720;37.606;2023-04-03T02:52:35;45.04;39.70;63.92;;
74496;Laerm;62979;55.720;37.606;2023-04-03T02:55:03;52.27;42.12;66.52;;
74496;Laerm;62979;55.720;37.606;2023-04-03T02:57:30;48.33;42.11;61.11;;
74496;Laerm;62979;55.720;37.606;2023-04-03T02:59:59;50.90;42.31;65.61;;
74496;Laerm;62979;55.720;37.606;2023-04-03T03:02:26;52.36;42.19;66.59;;
74496;Laerm;62979;55.720;37.606;2023-04-03T03:04:52;58.40;42.75;77.37;;
74496;Laerm;62979;55.720;37.606;2023-04-03T03:07:19;50.74;42.53;66.62;;
74496;Laerm;62979;55.720;37.606;2023-04-03T03:09:48;52.05;43.68;62.96;;
74496;Laerm;62979;55.720;37.606;2023-04-03T03:12:15;50.81;42.86;61.72;;
74496;Laerm;62979;55.720;37.606;2023-04-03T03:14:46;52.58;43.12;60.95;;
74496;Laerm;62979;55.720;37.606;2023-04-03T03:17:15;53.30;43.48;64.74;;
74496;Laerm;62979;55.720;37.606;2023-04-03T03:19:42;58.24;45.04;76.92;;
74496;Laerm;62979;55.720;37.606;2023-04-03T03:22:11;54.58;46.70;62.42;;
74496;Laerm;62979;55.720;37.606;2023-04-03T03:24:38;51.38;43.83;65.42;;
74496;Laerm;62979;55.720;37.606;2023-04-03T03:27:05;49.94;43.50;59.41;;
74496;Laerm;62979;55.720;37.606;2023-04-03T03:29:32;50.14;44.01;59.10;;
74496;Laerm;62979;55.720;37.606;2023-04-03T03:31:59;55.13;44.11;69.13;;
74496;Laerm;62979;55.720;37.606;2023-04-03T03:34:27;54.43;43.89;68.05;;
74496;Laerm;62979;55.720;37.606;2023-04-03T03:36:54;56.91;48.14;68.45;;
74496;Laerm;62979;55.720;37.606;2023-04-03T03:39:21;53.00;43.45;68.52;;
74496;Laerm;62979;55.720;37.606;2023-04-03T03:41:48;51.49;43.82;62.75;;
74496;Laerm;62979;55.720;37.606;2023-04-03T03:44:16;53.48;44.03;65.58;;
74496;Laerm;62979;55.720;37.606;2023-04-03T03:46:43;52.83;44.58;67.21;;
74496;Laerm;62979;55.720;37.606;2023-04-03T03:49:10;52.73;43.85;63.49;;
74496;Laerm;62979;55.720;37.606;2023-04-03T03:51:38;55.86;42.94;68.49;;
74496;Laerm;62979;55.720;37.606;2023-04-03T03:54:07;52.88;44.09;65.43;;
74496;Laerm;62979;55.720;37.606;2023-04-03T03:56:34;54.55;46.18;69.12;;
74496;Laerm;62979;55.720;37.606;2023-04-03T03:59:01;55.91;44.50;78.98;;
74496;Laerm;62979;55.720;37.606;2023-04-03T04:01:28;51.63;44.07;62.69;;
74496;Laerm;62979;55.720;37.606;2023-04-03T04:03:55;53.95;44.95;63.46;;
74496;Laerm;62979;55.720;37.606;2023-04-03T04:06:22;49.97;43.98;64.16;;
74496;Laerm;62979;55.720;37.606;2023-04-03T04:08:50;53.99;45.33;64.60;;
74496;Laerm;62979;55.720;37.606;2023-04-03T04:11:17;57.53;44.17;82.24;;
74496;Laerm;62979;55.720;37.606;2023-04-03T04:13:44;55.01;46.43;66.85;;
74496;Laerm;62979;55.720;37.606;2023-04-03T04:16:11;55.71;46.46;70.47;;
74496;Laerm;62979;55.720;37.606;2023-04-03T04:18:38;54.62;45.20;63.98;;
74496;Laerm;62979;55.720;37.606;2023-04-03T04:21:05;54.24;46.32;61.98;;
74496;Laerm;62979;55.720;37.606;2023-04-03T04:23:32;54.94;44.83;67.94;;
74496;Laerm;62979;55.720;37.606;2023-04-03T04:26:00;51.31;44.49;65.10;;
74496;Laerm;62979;55.720;37.606;2023-04-03T04:28:27;56.28;48.61;64.85;;
74496;Laerm;62979;55.720;37.606;2023-04-03T04:30:54;53.64;46.21;65.14;;
74496;Laerm;62979;55.720;37.606;2023-04-03T04:33:21;56.09;46.07;67.94;;
74496;Laerm;62979;55.720;37.606;2023-04-03T04:35:49;55.20;47.92;69.25;;
74496;Laerm;62979;55.720;37.606;2023-04-03T04:38:17;54.75;46.55;62.50;;
74496;Laerm;62979;55.720;37.606;2023-04-03T04:40:44;55.94;48.48;67.89;;
74496;Laerm;62979;55.720;37.606;2023-04-03T04:43:12;56.15;47.51;64.94;;
74496;Laerm;62979;55.720;37.606;2023-04-03T04:45:40;59.45;53.57;72.23;;
74496;Laerm;62979;55.720;37.606;2023-04-03T04:48:07;59.36;52.01;69.54;;
74496;Laerm;62979;55.720;37.606;2023-04-03T04:50:34;61.70;53.07;74.78;;
74496;Laerm;62979;55.720;37.606;2023-04-03T04:53:01;58.48;50.51;72.88;;
74496;Laerm;62979;55.720;37.606;2023-04-03T04:55:29;58.40;48.62;68.56;;
74496;Laerm;62979;55.720;37.606;2023-04-03T04:57:56;58.58;50.08;65.45;;
74496;Laerm;62979;55.720;37.606;2023-04-03T05:00:25;57.12;46.62;66.93;;
74496;Laerm;62979;55.720;37.606;2023-04-03T05:02:51;57.02;46.97;66.31;;
74496;Laerm;62979;55.720;37.606;2023-04-03T05:05:21;59.20;52.54;68.45;;
74496;Laerm;62979;55.720;37.606;2023-04-03T05:07:48;60.57;51.41;70.61;;
74496;Laerm;62979;55.720;37.606;2023-04-03T05:10:16;57.48;51.27;64.72;;
74496;Laerm;62979;55.720;37.606;2023-04-03T05:12:42;59.03;51.08;71.98;;
74496;Laerm;62979;55.720;37.606;2023-04-03T05:15:10;58.27;51.22;64.60;;
74496;Laerm;62979;55.720;37.606;2023-04-03T05:17:38;59.48;50.62;71.42;;
74496;Laerm;62979;55.720;37.606;2023-04-03T05:20:07;59.12;50.35;71.12;;
74496;Laerm;62979;55.720;37.606;2023-04-03T05:22:34;59.11;49.79;66.25;;
74496;Laerm;62979;55.720;37.606;2023-04-03T05:25:01;58.12;52.49;71.95;;
74496;Laerm;62979;55.720;37.606;2023-04-03T05:27:28;58.68;52.03;67.73;;
74496;Laerm;62979;55.720;37.606;2023-04-03T05:29:55;59.35;51.09;73.81;;
74496;Laerm;62979;55.720;37.606;2023-04-03T05:32:24;59.21;50.50;66.95;;
74496;Laerm;62979;55.720;37.606;2023-04-03T05:34:53;57.25;50.00;69.26;;
74496;Laerm;62979;55.720;37.606;2023-04-03T05:37:20;58.91;52.76;65.83;;
74496;Laerm;62979;55.720;37.606;2023-04-03T05:39:47;57.48;50.33;66.98;;
74496;Laerm;62979;55.720;37.606;2023-04-03T05:42:14;59.69;51.94;72.84;;
74496;Laerm;62979;55.720;37.606;2023-04-03T05:44:41;56.96;51.14;63.83;;
74496;Laerm;62979;55.720;37.606;2023-04-03T05:47:09;57.81;49.44;65.73;;
74496;Laerm;62979;55.720;37.606;2023-04-03T05:49:35;58.30;50.56;69.29;;
74496;Laerm;62979;55.720;37.606;2023-04-03T05:52:17;63.56;49.97;80.21;;
74496;Laerm;62979;55.720;37.606;2023-04-03T05:54:46;58.56;50.11;69.54;;
74496;Laerm;62979;55.720;37.606;2023-04-03T05:57:13;57.66;50.64;69.92;;
74496;Laerm;62979;55.720;37.606;2023-04-03T05:59:43;58.88;49.81;66.33;;
74496;Laerm;62979;55.720;37.606;2023-04-03T06:02:12;57.81;50.38;65.98;;
74496;Laerm;62979;55.720;37.606;2023-04-03T06:04:41;57.39;49.90;64.94;;
74496;Laerm;62979;55.720;37.606;2023-04-03T06:07:13;57.35;48.67;67.96;;
74496;Laerm;62979;55.720;37.606;2023-04-03T06:09:42;58.10;48.82;68.35;;
74496;Laerm;62979;55.720;37.606;2023-04-03T06:12:09;57.58;47.75;67.59;;
74496;Laerm;62979;55.720;37.606;2023-04-03T06:14:37;58.17;52.34;65.26;;
74496;Laerm;62979;55.720;37.606;2023-04-03T06:17:04;57.28;47.51;69.56;;
74496;Laerm;62979;55.720;37.606;2023-04-03T06:19:31;56.43;48.34;63.39;;
74496;Laerm;62979;55.720;37.606;2023-04-03T06:21:58;58.38;52.06;65.95;;
74496;Laerm;62979;55.720;37.606;2023-04-03T06:24:27;58.33;50.37;73.70;;
74496;Laerm;62979;55.720;37.606;2023-04-03T06:26:54;56.53;48.09;66.83;;
74496;Laerm;62979;55.720;37.606;2023-04-03T06:29:21;58.26;51.02;65.89;;
74496;Laerm;62979;55.720;37.606;2023-04-03T06:31:49;55.82;48.45;69.91;;
74496;Laerm;62979;55.720;37.606;2023-04-03T06:34:17;57.71;47.71;65.49;;
74496;Laerm;62979;55.720;37.606;2023-04-03T06:36:44;57.14;48.90;65.31;;
74496;Laerm;62979;55.720;37.606;2023-04-03T06:39:13;56.75;47.41;66.88;;
74496;Laerm;62979;55.720;37.606;2023-04-03T06:41:42;56.06;48.38;69.43;;
74496;Laerm;62979;55.720;37.606;2023-04-03T06:44:10;56.77;48.88;67.87;;
74496;Laerm;62979;55.720;37.606;2023-04-03T06:46:39;57.06;49.02;66.89;;
74496;Laerm;62979;55.720;37.606;2023-04-03T06:49:06;57.05;47.40;68.94;;
74496;Laerm;62979;55.720;37.606;2023-04-03T06:51:34;57.42;48.07;67.62;;
74496;Laerm;62979;55.720;37.606;2023-04-03T06:54:02;58.52;49.66;71.67;;
74496;Laerm;62979;55.720;37.606;2023-04-03T06:56:30;55.98;49.24;62.81;;
74496;Laerm;62979;55.720;37.606;2023-04-03T06:58:58;56.23;49.99;67.31;;
74496;Laerm;62979;55.720;37.606;2023-04-03T07:01:27;58.82;51.72;68.14;;
74496;Laerm;62979;55.720;37.606;2023-04-03T07:03:56;58.13;50.83;66.54;;
74496;Laerm;62979;55.720;37.606;2023-04-03T07:06:23;56.26;48.20;64.84;;
74496;Laerm;62979;55.720;37.606;2023-04-03T07:08:53;58.42;52.51;70.15;;
74496;Laerm;62979;55.720;37.606;2023-04-03T07:11:20;59.53;50.06;71.87;;
74496;Laerm;62979;55.720;37.606;2023-04-03T07:13:48;57.36;46.42;67.22;;
74496;Laerm;62979;55.720;37.606;2023-04-03T07:16:16;56.70;48.12;68.37;;
74496;Laerm;62979;55.720;37.606;2023-04-03T07:18:43;56.96;47.80;66.28;;
74496;Laerm;62979;55.720;37.606;2023-04-03T07:21:10;58.48;48.68;67.23;;
74496;Laerm;62979;55.720;37.606;2023-04-03T07:23:38;58.73;48.30;66.88;;
74496;Laerm;62979;55.720;37.606;2023-04-03T07:26:05;60.98;49.63;73.65;;
74496;Laerm;62979;55.720;37.606;2023-04-03T07:28:33;57.98;50.76;66.66;;
74496;Laerm;62979;55.720;37.606;2023-04-03T07:31:02;59.40;47.84;67.75;;
74496;Laerm;62979;55.720;37.606;2023-04-03T07:33:32;57.07;50.10;63.33;;
74496;Laerm;62979;55.720;37.606;2023-04-03T07:35:59;61.19;50.87;74.63;;
74496;Laerm;62979;55.720;37.606;2023-04-03T07:38:26;56.02;49.75;68.65;;
74496;Laerm;62979;55.720;37.606;2023-04-03T07:40:53;60.86;51.52;74.18;;
74496;Laerm;62979;55.720;37.606;2023-04-03T07:43:21;61.34;49.84;67.55;;
74496;Laerm;62979;55.720;37.606;2023-04-03T07:45:50;57.65;51.25;64.84;;
74496;Laerm;62979;55.720;37.606;2023-04-03T07:48:19;60.20;52.22;65.91;;
74496;Laerm;62979;55.720;37.606;2023-04-03T07:50:48;55.77;49.87;69.49;;
74496;Laerm;62979;55.720;37.606;2023-04-03T07:53:16;57.79;48.96;69.27;;
74496;Laerm;62979;55.720;37.606;2023-04-03T07:55:45;60.22;50.19;67.47;;
74496;Laerm;62979;55.720;37.606;2023-04-03T07:58:14;58.61;49.26;64.75;;
74496;Laerm;62979;55.720;37.606;2023-04-03T08:00:42;58.46;49.47;65.94;;
74496;Laerm;62979;55.720;37.606;2023-04-03T08:03:10;57.31;49.67;71.32;;
74496;Laerm;62979;55.720;37.606;2023-04-03T08:05:37;55.88;48.19;65.26;;
74496;Laerm;62979;55.720;37.606;2023-04-03T08:08:08;60.67;49.66;68.51;;
74496;Laerm;62979;55.720;37.606;2023-04-03T08:10:35;58.71;51.69;68.60;;
74496;Laerm;62979;55.720;37.606;2023-04-03T08:13:04;62.12;52.98;75.50;;
74496;Laerm;62979;55.720;37.606;2023-04-03T08:15:32;57.95;49.59;66.64;;
74496;Laerm;62979;55.720;37.606;2023-04-03T08:17:59;56.52;48.07;66.98;;
74496;Laerm;62979;55.720;37.606;2023-04-03T08:20:26;58.15;46.40;67.98;;
74496;Laerm;62979;55.720;37.606;2023-04-03T08:22:54;57.73;47.78;69.60;;
74496;Laerm;62979;55.720;37.606;2023-04-03T08:25:22;58.72;47.67;68.55;;
74496;Laerm;62979;55.720;37.606;2023-04-03T08:27:49;60.06;46.57;69.88;;
74496;Laerm;62979;55.720;37.606;2023-04-03T08:30:16;56.12;48.04;64.17;;
74496;Laerm;62979;55.720;37.606;2023-04-03T08:32:43;55.74;47.83;65.35;;
74496;Laerm;62979;55.720;37.606;2023-04-03T08:35:11;54.60;46.70;69.44;;
74496;Laerm;62979;55.720;37.606;2023-04-03T08:37:39;54.03;46.79;64.64;;
74496;Laerm;62979;55.720;37.606;2023-04-03T08:40:13;55.87;46.08;66.23;;
74496;Laerm;62979;55.720;37.606;2023-04-03T08:42:57;60.03;46.60;80.68;;
74496;Laerm;62979;55.720;37.606;2023-04-03T08:45:42;59.14;49.30;71.05;;
74496;Laerm;62979;55.720;37.606;2023-04-03T08:48:15;56.44;47.99;70.41;;
74496;Laerm;62979;55.720;37.606;2023-04-03T08:50:51;55.77;46.79;63.90;;
74496;Laerm;62979;55.720;37.606;2023-04-03T08:53:25;55.41;46.45;62.85;;
74496;Laerm;62979;55.720;37.606;2023-04-03T08:55:55;59.82;49.45;76.88;;
74496;Laerm;62979;55.720;37.606;2023-04-03T08:58:27;56.60;47.52;67.68;;
74496;Laerm;62979;55.720;37.606;2023-04-03T09:00:59;57.04;49.23;71.33;;
74496;Laerm;62979;55.720;37.606;2023-04-03T09:03:31;57.57;49.09;69.12;;
74496;Laerm;62979;55.720;37.606;2023-04-03T09:06:04;57.71;47.84;79.68;;
74496;Laerm;62979;55.720;37.606;2023-04-03T09:08:38;56.87;46.05;64.66;;
74496;Laerm;62979;55.720;37.606;2023-04-03T09:11:17;55.11;46.18;64.32;;
74496;Laerm;62979;55.720;37.606;2023-04-03T09:13:54;54.42;46.12;63.26;;
74496;Laerm;62979;55.720;37.606;2023-04-03T09:16:41;55.38;47.41;73.36;;
74496;Laerm;62979;55.720;37.606;2023-04-03T09:19:22;57.19;45.98;65.44;;
74496;Laerm;62979;55.720;37.606;2023-04-03T09:21:53;55.46;47.68;63.33;;
74496;Laerm;62979;55.720;37.606;2023-04-03T09:24:24;56.97;47.12;69.10;;
74496;Laerm;62979;55.720;37.606;2023-04-03T09:26:56;57.35;48.86;68.12;;
74496;Laerm;62979;55.720;37.606;2023-04-03T09:29:27;58.06;47.10;75.00;;
74496;Laerm;62979;55.720;37.606;2023-04-03T09:32:00;55.81;47.36;63.78;;
74496;Laerm;62979;55.720;37.606;2023-04-03T09:34:31;54.92;45.43;68.15;;
74496;Laerm;62979;55.720;37.606;2023-04-03T09:37:01;55.63;44.82;64.00;;
74496;Laerm;62979;55.720;37.606;2023-04-03T09:39:50;57.35;47.74;67.78;;
74496;Laerm;62979;55.720;37.606;2023-04-03T09:42:21;55.96;46.90;65.25;;
74496;Laerm;62979;55.720;37.606;2023-04-03T09:44:55;56.23;48.65;65.95;;
74496;Laerm;62979;55.720;37.606;2023-04-03T09:47:26;55.90;46.64;68.85;;
74496;Laerm;62979;55.720;37.606;2023-04-03T09:50:18;57.64;48.14;70.74;;
74496;Laerm;62979;55.720;37.606;2023-04-03T09:52:49;55.20;48.10;63.66;;
74496;Laerm;62979;55.720;37.606;2023-04-03T09:55:21;55.94;46.21;66.71;;
74496;Laerm;62979;55.720;37.606;2023-04-03T09:57:53;57.29;45.95;73.58;;
74496;Laerm;62979;55.720;37.606;2023-04-03T10:00:25;56.39;45.99;65.20;;
74496;Laerm;62979;55.720;37.606;2023-04-03T10:02:56;54.59;46.01;65.10;;
74496;Laerm;62979;55.720;37.606;2023-04-03T10:05:34;54.44;46.05;66.46;;
74496;Laerm;62979;55.720;37.606;2023-04-03T10:08:15;55.34;47.07;66.92;;
74496;Laerm;62979;55.720;37.606;2023-04-03T10:10:48;56.99;47.32;66.39;;
74496;Laerm;62979;55.720;37.606;2023-04-03T10:13:31;57.04;48.17;66.25;;
74496;Laerm;62979;55.720;37.606;2023-04-03T10:16:03;54.75;45.91;66.77;;
74496;Laerm;62979;55.720;37.606;2023-04-03T10:18:39;57.36;47.11;71.33;;
74496;Laerm;62979;55.720;37.606;2023-04-03T10:21:14;56.07;46.06;66.05;;
74496;Laerm;62979;55.720;37.606;2023-04-03T10:23:50;57.12;48.07;69.31;;
74496;Laerm;62979;55.720;37.606;2023-04-03T10:26:31;56.99;47.15;70.48;;
74496;Laerm;62979;55.720;37.606;2023-04-03T10:29:15;58.41;50.31;70.24;;
74496;Laerm;62979;55.720;37.606;2023-04-03T10:31:59;55.71;47.03;66.83;;
74496;Laerm;62979;55.720;37.606;2023-04-03T10:34:32;55.72;46.45;66.80;;
74496;Laerm;62979;55.720;37.606;2023-04-03T10:37:13;55.47;46.68;63.56;;
74496;Laerm;62979;55.720;37.606;2023-04-03T10:39:52;56.50;48.66;64.42;;
74496;Laerm;62979;55.720;37.606;2023-04-03T10:42:29;55.55;45.85;64.84;;
74496;Laerm;62979;55.720;37.606;2023-04-03T10:45:21;54.59;44.97;63.23;;
74496;Laerm;62979;55.720;37.606;2023-04-03T10:48:04;55.12;47.54;63.51;;
74496;Laerm;62979;55.720;37.606;2023-04-03T10:50:44;56.59;48.45;65.75;;
74496;Laerm;62979;55.720;37.606;2023-04-03T10:53:24;53.71;44.63;65.71;;
74496;Laerm;62979;55.720;37.606;2023-04-03T10:56:07;57.08;48.34;73.09;;
74496;Laerm;62979;55.720;37.606;2023-04-03T10:58:43;60.84;49.66;70.68;;
74496;Laerm;62979;55.720;37.606;2023-04-03T11:01:16;54.86;44.57;65.60;;
74496;Laerm;62979;55.720;37.606;2023-04-03T11:03:53;58.36;48.90;73.21;;
74496;Laerm;62979;55.720;37.606;2023-04-03T11:06:25;56.47;47.49;69.73;;
74496;Laerm;62979;55.720;37.606;2023-04-03T11:08:58;58.19;50.28;67.61;;
74496;Laerm;62979;55.720;37.606;2023-04-03T11:11:32;60.52;49.53;72.73;;
74496;Laerm;62979;55.720;37.606;2023-04-03T11:14:03;56.02;47.37;83.31;;
74496;Laerm;62979;55.720;37.606;2023-04-03T11:16:41;58.75;48.57;74.61;;
74496;Laerm;62979;55.720;37.606;2023-04-03T11:19:18;56.30;47.36;67.37;;
74496;Laerm;62979;55.720;37.606;2023-04-03T11:21:54;59.79;48.99;85.24;;
74496;Laerm;62979;55.720;37.606;2023-04-03T11:24:27;59.32;49.98;73.34;;
74496;Laerm;62979;55.720;37.606;2023-04-03T11:26:59;59.53;48.90;75.04;;
74496;Laerm;62979;55.720;37.606;2023-04-03T11:29:32;58.76;45.50;74.46;;
74496;Laerm;62979;55.720;37.606;2023-04-03T11:32:10;61.30;51.45;82.02;;
74496;Laerm;62979;55.720;37.606;2023-04-03T11:34:47;56.85;46.62;72.65;;
74496;Laerm;62979;55.720;37.606;2023-04-03T11:37:27;59.67;51.62;72.97;;
74496;Laerm;62979;55.720;37.606;2023-04-03T11:40:00;57.83;47.17;65.05;;
74496;Laerm;62979;55.720;37.606;2023-04-03T11:42:34;58.20;50.43;68.33;;
74496;Laerm;62979;55.720;37.606;2023-04-03T11:45:52;58.68;50.92;70.19;;
74496;Laerm;62979;55.720;37.606;2023-04-03T11:48:52;58.02;52.58;68.51;;
74496;Laerm;62979;55.720;37.606;2023-04-03T11:51:53;57.99;49.80;71.44;;
74496;Laerm;62979;55.720;37.606;2023-04-03T11:54:47;59.34;47.48;68.42;;
74496;Laerm;62979;55.720;37.606;2023-04-03T11:58:02;58.57;48.35;71.71;;
74496;Laerm;62979;55.720;37.606;2023-04-03T12:01:06;58.99;48.65;79.07;;
74496;Laerm;62979;55.720;37.606;2023-04-03T12:04:07;60.77;49.23;72.37;;
74496;Laerm;62979;55.720;37.606;2023-04-03T12:07:14;56.95;48.83;64.62;;
74496;Laerm;62979;55.720;37.606;2023-04-03T12:10:16;59.01;47.80;72.94;;
74496;Laerm;62979;55.720;37.606;2023-04-03T12:12:56;57.44;48.08;67.60;;
74496;Laerm;62979;55.720;37.606;2023-04-03T12:15:55;57.98;48.80;80.18;;
74496;Laerm;62979;55.720;37.606;2023-04-03T12:18:57;57.01;50.21;65.31;;
74496;Laerm;62979;55.720;37.606;2023-04-03T12:22:16;57.86;50.50;67.32;;
74496;Laerm;62979;55.720;37.606;2023-04-03T12:24:48;56.47;46.70;66.43;;
74496;Laerm;62979;55.720;37.606;2023-04-03T12:27:26;55.59;48.05;70.78;;
74496;Laerm;62979;55.720;37.606;2023-04-03T12:30:04;56.76;47.33;67.08;;
74496;Laerm;62979;55.720;37.606;2023-04-03T12:32:46;58.57;48.37;77.95;;
74496;Laerm;62979;55.720;37.606;2023-04-03T12:35:26;58.21;51.96;67.84;;
74496;Laerm;62979;55.720;37.606;2023-04-03T12:41:21;56.94;48.67;65.27;;
74496;Laerm;62979;55.720;37.606;2023-04-03T12:44:20;55.79;47.69;66.82;;
74496;Laerm;62979;55.720;37.606;2023-04-03T12:46:53;59.20;50.35;77.45;;
74496;Laerm;62979;55.720;37.606;2023-04-03T12:49:38;56.05;48.23;64.02;;
74496;Laerm;62979;55.720;37.606;2023-04-03T12:52:17;54.47;47.90;62.28;;
74496;Laerm;62979;55.720;37.606;2023-04-03T12:54:48;57.33;51.53;71.98;;
74496;Laerm;62979;55.720;37.606;2023-04-03T12:57:19;56.99;50.39;70.19;;
74496;Laerm;62979;55.720;37.606;2023-04-03T12:59:47;56.43;50.09;66.21;;
74496;Laerm;62979;55.720;37.606;2023-04-03T13:02:23;57.04;47.53;65.68;;
74496;Laerm;62979;55.720;37.606;2023-04-03T13:04:52;64.75;49.71;78.25;;
74496;Laerm;62979;55.720;37.606;2023-04-03T13:07:27;59.94;49.10;74.55;;
74496;Laerm;62979;55.720;37.606;2023-04-03T13:10:14;56.38;48.95;66.64;;
74496;Laerm;62979;55.720;37.606;2023-04-03T13:12:49;57.55;47.50;68.24;;
74496;Laerm;62979;55.720;37.606;2023-04-03T13:15:20;54.47;45.90;67.81;;
74496;Laerm;62979;55.720;37.606;2023-04-03T13:17:48;56.63;50.71;68.70;;
74496;Laerm;62979;55.720;37.606;2023-04-03T13:20:23;58.04;49.58;70.23;;
74496;Laerm;62979;55.720;37.606;2023-04-03T13:22:57;62.25;48.25;77.49;;
74496;Laerm;62979;55.720;37.606;2023-04-03T13:25:32;67.61;49.11;79.22;;
74496;Laerm;62979;55.720;37.606;2023-04-03T13:28:01;56.51;49.46;66.54;;
74496;Laerm;62979;55.720;37.606;2023-04-03T13:30:32;57.94;49.69;67.84;;
74496;Laerm;62979;55.720;37.606;2023-04-03T13:33:03;57.29;49.24;69.91;;
74496;Laerm;62979;55.720;37.606;2023-04-03T13:35:36;55.22;46.45;63.85;;
74496;Laerm;62979;55.720;37.606;2023-04-03T13:38:23;59.23;48.09;78.11;;
74496;Laerm;62979;55.720;37.606;2023-04-03T13:40:54;60.57;50.96;74.10;;
74496;Laerm;62979;55.720;37.606;2023-04-03T13:43:26;61.29;48.52;72.58;;
74496;Laerm;62979;55.720;37.606;2023-04-03T13:46:01;55.17;47.15;66.56;;
74496;Laerm;62979;55.720;37.606;2023-04-03T13:48:38;54.29;47.27;65.85;;
74496;Laerm;62979;55.720;37.606;2023-04-03T13:51:17;58.12;49.14;79.71;;
74496;Laerm;62979;55.720;37.606;2023-04-03T13:53:48;56.38;50.09;69.01;;
74496;Laerm;62979;55.720;37.606;2023-04-03T13:56:29;57.30;49.92;68.78;;
74496;Laerm;62979;55.720;37.606;2023-04-03T13:59:06;56.97;48.72;65.08;;
74496;Laerm;62979;55.720;37.606;2023-04-03T14:01:51;58.98;49.93;69.98;;
74496;Laerm;62979;55.720;37.606;2023-04-03T14:04:22;56.54;49.92;67.60;;